createdAt,value
2022-11-06T00:03:30.543Z,100695.53
2022-11-06T00:08:41.166Z,100690.53
2022-11-06T00:13:44.122Z,100686.44
2022-11-06T00:18:47.760Z,100683.91
2022-11-06T00:23:51.594Z,100681.22
2022-11-06T00:28:54.681Z,100696.22
2022-11-06T00:33:59.558Z,100699.13
2022-11-06T00:39:02.419Z,100691.56
2022-11-06T00:44:05.416Z,100691.09
2022-11-06T00:49:08.107Z,100695.63
2022-11-06T00:54:12.438Z,100702.63
2022-11-06T01:04:23.072Z,100719.06
2022-11-06T01:09:28.533Z,100717.25
2022-11-06T01:14:31.155Z,100723.22
2022-11-06T01:19:33.910Z,100712.06
2022-11-06T01:24:36.724Z,100714.28
2022-11-06T01:29:39.398Z,100710.56
2022-11-06T01:34:42.109Z,100709.06
2022-11-06T01:39:44.831Z,100698.22
2022-11-06T01:45:18.495Z,100689.31
2022-11-06T01:50:21.283Z,100686.16
2022-11-06T01:55:35.682Z,100681.16
2022-11-06T02:00:38.557Z,100679.59
2022-11-06T02:05:42.419Z,100663.16
2022-11-06T02:10:46.231Z,100683.84
2022-11-06T02:16:01.033Z,100693.84
2022-11-06T02:21:15.456Z,100687.25
2022-11-06T02:26:49.901Z,100689.78
2022-11-06T02:31:56.206Z,100671.91
2022-11-06T02:37:08.060Z,100683.75
2022-11-06T02:42:12.959Z,100689.44
2022-11-06T02:47:19.374Z,100691.94
2022-11-06T02:52:40.404Z,100685.72
2022-11-06T02:57:52.431Z,100684.28
2022-11-06T03:03:06.698Z,100678.97
2022-11-06T03:08:21.991Z,100685.38
2022-11-06T03:13:35.199Z,100681.31
2022-11-06T03:19:02.805Z,100673.34
2022-11-06T03:24:17.898Z,100678.81
2022-11-06T03:29:40.967Z,100651.16
2022-11-06T03:34:53.743Z,100663.97
2022-11-06T03:40:01.830Z,100671.41
2022-11-06T03:45:13.467Z,100672.25
2022-11-06T03:50:32.638Z,100675.81
2022-11-06T03:55:51.219Z,100640.69
2022-11-06T04:00:56.841Z,100668.91
2022-11-06T04:06:21.068Z,100657.16
2022-11-06T04:11:46.381Z,100664.75
2022-11-06T04:16:56.592Z,100671.59
2022-11-06T04:22:11.019Z,100666.09
2022-11-06T04:27:37.472Z,100676.06
2022-11-06T04:33:01.058Z,100670.75
2022-11-06T04:38:21.534Z,100677.00
2022-11-06T04:43:42.928Z,100680.72
2022-11-06T04:48:47.010Z,100676.47
2022-11-06T04:53:52.878Z,100681.75
2022-11-06T04:58:55.590Z,100669.59
2022-11-06T05:03:58.808Z,100695.75
2022-11-06T05:09:02.087Z,100689.56
2022-11-06T05:14:04.826Z,100682.38
2022-11-06T05:19:08.010Z,100684.59
2022-11-06T05:24:11.152Z,100695.69
2022-11-06T05:29:15.660Z,100683.13
2022-11-06T05:34:18.297Z,100682.78
2022-11-06T05:39:21.029Z,100665.38
2022-11-06T05:44:23.903Z,100663.66
2022-11-06T05:49:26.545Z,100658.84
2022-11-06T05:54:29.213Z,100656.75
2022-11-06T05:59:31.802Z,100659.25
2022-11-06T06:04:34.471Z,100655.09
2022-11-06T06:09:37.883Z,100665.78
2022-11-06T06:14:40.906Z,100659.84
2022-11-06T06:19:43.548Z,100651.66
2022-11-06T06:24:46.199Z,100652.53
2022-11-06T06:29:48.781Z,100650.09
2022-11-06T06:34:51.405Z,100654.22
2022-11-06T06:39:54.007Z,100658.28
2022-11-06T06:44:56.707Z,100639.09
2022-11-06T06:49:59.335Z,100670.47
2022-11-06T06:55:01.944Z,100672.78
2022-11-06T07:00:08.693Z,100653.34
2022-11-06T07:05:11.325Z,100653.75
2022-11-06T07:10:14.660Z,100668.13
2022-11-06T07:15:17.599Z,100670.84
2022-11-06T07:20:20.159Z,100659.75
2022-11-06T07:25:22.863Z,100672.47
2022-11-06T07:30:25.950Z,100665.59
2022-11-06T07:35:29.534Z,100646.94
2022-11-06T07:40:33.861Z,100665.81
2022-11-06T07:45:37.530Z,100647.75
2022-11-06T07:50:40.147Z,100643.59
2022-11-06T07:55:56.247Z,100631.78
2022-11-06T08:00:59.186Z,100627.56
2022-11-06T08:06:05.284Z,100643.50
2022-11-06T08:11:10.908Z,100635.81
2022-11-06T08:16:15.259Z,100629.84
2022-11-06T08:21:17.881Z,100641.03
2022-11-06T08:26:20.750Z,100645.19
2022-11-06T08:31:24.344Z,100648.94
2022-11-06T08:36:26.980Z,100647.66
2022-11-06T08:41:29.657Z,100613.88
2022-11-06T08:46:32.758Z,100638.84
2022-11-06T08:51:35.353Z,100629.78
2022-11-06T08:56:38.011Z,100631.13
2022-11-06T09:01:40.698Z,100589.91
2022-11-06T09:06:43.464Z,100626.78
2022-11-06T09:11:46.268Z,100625.41
2022-11-06T09:16:48.872Z,100622.50
2022-11-06T09:21:54.735Z,100609.97
2022-11-06T09:26:57.679Z,100615.50
2022-11-06T09:32:00.299Z,100607.31
2022-11-06T09:37:03.659Z,100579.22
2022-11-06T09:42:23.534Z,100598.16
2022-11-06T09:47:30.933Z,100591.28
2022-11-06T09:52:37.205Z,100591.94
2022-11-06T09:58:06.020Z,100584.97
2022-11-06T10:03:26.583Z,100584.00
2022-11-06T10:08:30.891Z,100555.31
2022-11-06T10:13:57.908Z,100589.78
2022-11-06T10:19:00.344Z,100581.50
2022-11-06T10:24:16.222Z,100569.69
2022-11-06T10:29:46.774Z,100569.84
2022-11-06T10:35:04.050Z,100578.25
2022-11-06T10:40:14.503Z,100576.03
2022-11-06T10:45:18.329Z,100587.75
2022-11-06T10:50:23.628Z,100581.03
2022-11-06T10:55:39.906Z,100572.22
2022-11-06T11:00:43.112Z,100562.75
2022-11-06T11:05:45.804Z,100556.78
2022-11-06T11:11:04.226Z,100567.25
2022-11-06T11:16:37.540Z,100551.09
2022-11-06T11:22:12.411Z,100529.09
2022-11-06T11:27:15.133Z,100535.06
2022-11-06T11:32:21.347Z,100550.63
2022-11-06T11:37:36.145Z,100543.78
2022-11-06T11:42:38.871Z,100536.22
2022-11-06T11:47:46.014Z,100528.53
2022-11-06T11:52:53.623Z,100536.97
2022-11-06T11:57:59.584Z,100533.97
2022-11-06T12:03:07.327Z,100523.94
2022-11-06T12:08:26.277Z,100527.91
2022-11-06T12:13:28.985Z,100522.69
2022-11-06T12:18:39.349Z,100496.19
2022-11-06T12:24:03.873Z,100504.75
2022-11-06T12:29:10.448Z,100476.03
2022-11-06T12:35:00.944Z,100498.13
2022-11-06T12:40:24.804Z,100503.66
2022-11-06T12:45:44.162Z,100492.69
2022-11-06T12:51:01.422Z,100489.41
2022-11-06T12:56:32.484Z,100490.53
2022-11-06T13:01:47.689Z,100498.06
2022-11-06T13:07:01.876Z,100494.97
2022-11-06T13:12:24.811Z,100504.63
2022-11-06T13:17:53.794Z,100499.22
2022-11-06T13:23:12.226Z,100501.41
2022-11-06T13:28:25.037Z,100493.75
2022-11-06T13:33:36.725Z,100497.84
2022-11-06T13:39:00.276Z,100485.94
2022-11-06T13:44:05.967Z,100494.00
2022-11-06T13:49:11.387Z,100491.56
2022-11-06T13:54:51.512Z,100491.88
2022-11-06T14:00:23.706Z,100487.84
2022-11-06T14:05:44.793Z,100490.19
2022-11-06T14:11:03.856Z,100474.53
2022-11-06T14:16:21.901Z,100483.59
2022-11-06T14:21:36.434Z,100474.84
2022-11-06T14:26:50.697Z,100467.34
2022-11-06T14:32:11.443Z,100476.13
2022-11-06T14:37:20.284Z,100477.56
2022-11-06T14:42:30.362Z,100473.28
2022-11-06T14:47:40.284Z,100461.38
2022-11-06T14:52:52.440Z,100445.72
2022-11-06T14:57:59.115Z,100446.94
2022-11-06T15:03:05.168Z,100440.88
2022-11-06T15:08:08.272Z,100374.03
2022-11-06T15:13:17.906Z,100421.44
2022-11-06T15:18:23.251Z,100444.06
2022-11-06T15:23:37.623Z,100434.47
2022-11-06T15:28:48.939Z,100426.91
2022-11-06T15:34:14.202Z,100421.31
2022-11-06T15:39:40.540Z,100431.63
2022-11-06T15:44:45.394Z,100432.69
2022-11-06T15:49:48.308Z,100405.00
2022-11-06T15:54:56.698Z,100422.91
2022-11-06T16:00:17.646Z,100414.41
2022-11-06T16:05:22.422Z,100415.72
2022-11-06T16:10:26.667Z,100397.53
2022-11-06T16:15:50.723Z,100414.59
2022-11-06T16:21:01.068Z,100377.66
2022-11-06T16:26:06.566Z,100385.63
2022-11-06T16:31:13.971Z,100395.13
2022-11-06T16:36:16.980Z,100399.22
2022-11-06T16:41:57.606Z,100397.47
2022-11-06T16:47:15.770Z,100400.91
2022-11-06T16:52:35.861Z,100392.00
2022-11-06T16:57:59.683Z,100389.84
2022-11-06T17:03:08.831Z,100369.84
2022-11-06T17:08:36.119Z,100341.59
2022-11-06T17:13:42.283Z,100380.84
2022-11-06T17:18:48.257Z,100379.69
2022-11-06T17:23:53.013Z,100373.34
2022-11-06T17:28:57.528Z,100374.31
2022-11-06T17:34:03.147Z,100381.00
2022-11-06T17:39:06.663Z,100373.22
2022-11-06T17:44:12.357Z,100369.75
2022-11-06T17:49:18.482Z,100376.28
2022-11-06T17:54:26.966Z,100371.63
2022-11-06T17:59:30.778Z,100364.44
2022-11-06T18:04:37.591Z,100361.41
2022-11-06T18:09:40.430Z,100353.31
2022-11-06T18:14:43.335Z,100355.28
2022-11-06T18:19:46.306Z,100364.88
2022-11-06T18:24:49.712Z,100345.81
2022-11-06T18:29:52.509Z,100357.59
2022-11-06T18:34:55.242Z,100358.41
2022-11-06T18:39:58.735Z,100347.44
2022-11-06T18:45:01.542Z,100350.88
2022-11-06T18:50:06.502Z,100343.22
2022-11-06T18:55:09.715Z,100325.75
2022-11-06T19:00:13.509Z,100312.91
2022-11-06T19:05:19.254Z,100342.41
2022-11-06T19:10:21.971Z,100300.88
2022-11-06T19:15:24.917Z,100330.38
2022-11-06T19:20:30.811Z,100331.09
2022-11-06T19:25:34.151Z,100302.97
2022-11-06T19:30:37.587Z,100308.00
2022-11-06T19:35:40.248Z,100323.28
2022-11-06T19:40:43.403Z,100307.66
2022-11-06T19:45:46.251Z,100307.41
2022-11-06T19:50:59.610Z,100309.56
2022-11-06T19:56:10.361Z,100292.44
2022-11-06T20:01:13.689Z,100308.50
2022-11-06T20:06:17.006Z,100292.28
2022-11-06T20:11:19.841Z,100283.03
2022-11-06T20:16:22.558Z,100273.22
2022-11-06T20:21:28.214Z,100295.38
2022-11-06T20:26:30.919Z,100280.72
2022-11-06T20:31:33.615Z,100283.56
2022-11-06T20:36:36.433Z,100287.22
2022-11-06T20:41:39.706Z,100281.69
2022-11-06T20:46:43.614Z,100261.56
2022-11-06T20:52:12.877Z,100269.59
2022-11-06T20:57:11.692Z,100259.25
2022-11-06T21:02:14.490Z,100274.59
2022-11-06T21:07:17.175Z,100262.97
2022-11-06T21:12:19.923Z,100265.22
2022-11-06T21:17:22.619Z,100267.41
2022-11-06T21:22:25.265Z,100261.00
2022-11-06T21:27:27.917Z,100236.41
2022-11-06T21:32:30.820Z,100257.56
2022-11-06T21:37:33.437Z,100252.75
2022-11-06T21:42:36.629Z,100229.72
2022-11-06T21:47:39.226Z,100240.81
2022-11-06T21:53:00.845Z,100243.88
2022-11-06T21:58:03.463Z,100234.53
2022-11-06T22:03:06.172Z,100226.75
2022-11-06T22:08:08.947Z,100226.53
2022-11-06T22:13:11.812Z,100228.66
2022-11-06T22:18:15.328Z,100144.50
2022-11-06T22:23:18.219Z,100214.84
2022-11-06T22:28:20.774Z,100200.56
2022-11-06T22:33:23.380Z,100215.09
2022-11-06T22:38:26.818Z,100204.19
2022-11-06T22:43:31.788Z,100182.28
2022-11-06T22:48:34.635Z,100195.88
2022-11-06T22:53:37.323Z,100195.94
2022-11-06T22:58:41.371Z,100212.69
2022-11-06T23:03:44.017Z,100213.81
2022-11-06T23:08:47.360Z,100200.16
2022-11-06T23:13:50.686Z,100214.53
2022-11-06T23:18:53.468Z,100230.94
2022-11-06T23:23:56.144Z,100234.06
2022-11-06T23:28:58.991Z,100230.63
2022-11-06T23:34:01.554Z,100219.75
2022-11-06T23:39:05.456Z,100226.97
2022-11-06T23:44:32.315Z,100229.06
2022-11-06T23:49:35.387Z,100235.38
2022-11-06T23:54:37.903Z,100216.41
2022-11-06T23:59:40.850Z,100224.03
